sensor_id;sensor_type;location;lat;lon;timestamp;pressure;altitude;pressure_sealevel;temperature;humidity
50394;BME280;36308;46.312;25.288;2022-07-05T00:00:26;96173.06;;;21.57;59.88
50394;BME280;36308;46.312;25.288;2022-07-05T00:02:51;96180.47;;;21.56;59.90
50394;BME280;36308;46.312;25.288;2022-07-05T00:05:16;96181.75;;;21.50;60.17
50394;BME280;36308;46.312;25.288;2022-07-05T00:07:42;96178.53;;;21.48;60.25
50394;BME280;36308;46.312;25.288;2022-07-05T00:10:08;96174.50;;;21.46;60.16
50394;BME280;36308;46.312;25.288;2022-07-05T00:12:33;96171.91;;;21.40;60.34
50394;BME280;36308;46.312;25.288;2022-07-05T00:15:00;96167.13;;;21.37;60.28
50394;BME280;36308;46.312;25.288;2022-07-05T00:17:26;96169.38;;;21.35;60.31
50394;BME280;36308;46.312;25.288;2022-07-05T00:19:51;96162.09;;;21.31;60.15
50394;BME280;36308;46.312;25.288;2022-07-05T00:22:17;96168.25;;;21.28;60.54
50394;BME280;36308;46.312;25.288;2022-07-05T00:24:42;96164.53;;;21.24;60.14
50394;BME280;36308;46.312;25.288;2022-07-05T00:27:07;96167.13;;;21.20;60.65
50394;BME280;36308;46.312;25.288;2022-07-05T00:29:33;96168.09;;;21.15;60.70
50394;BME280;36308;46.312;25.288;2022-07-05T00:31:58;96167.91;;;21.12;60.79
50394;BME280;36308;46.312;25.288;2022-07-05T00:34:24;96158.75;;;21.08;60.88
50394;BME280;36308;46.312;25.288;2022-07-05T00:36:49;96155.06;;;21.04;60.85
50394;BME280;36308;46.312;25.288;2022-07-05T00:39:15;96145.41;;;20.97;61.11
50394;BME280;36308;46.312;25.288;2022-07-05T00:41:41;96150.72;;;20.94;60.78
50394;BME280;36308;46.312;25.288;2022-07-05T00:44:09;96152.63;;;20.93;61.07
50394;BME280;36308;46.312;25.288;2022-07-05T00:46:36;96154.88;;;20.91;61.23
50394;BME280;36308;46.312;25.288;2022-07-05T00:49:03;96150.09;;;20.88;61.26
50394;BME280;36308;46.312;25.288;2022-07-05T00:51:30;96152.66;;;20.85;61.11
50394;BME280;36308;46.312;25.288;2022-07-05T00:53:56;96149.75;;;20.81;61.53
50394;BME280;36308;46.312;25.288;2022-07-05T00:56:23;96150.41;;;20.78;61.53
50394;BME280;36308;46.312;25.288;2022-07-05T01:01:56;96144.59;;;20.71;61.58
50394;BME280;36308;46.312;25.288;2022-07-05T01:04:22;96143.63;;;20.67;61.62
50394;BME280;36308;46.312;25.288;2022-07-05T01:06:49;96142.66;;;20.63;61.61
50394;BME280;36308;46.312;25.288;2022-07-05T01:09:16;96144.91;;;20.61;61.85
50394;BME280;36308;46.312;25.288;2022-07-05T01:11:46;96151.28;;;20.56;61.82
50394;BME280;36308;46.312;25.288;2022-07-05T01:14:20;96148.41;;;20.52;61.90
50394;BME280;36308;46.312;25.288;2022-07-05T01:16:46;96150.66;;;20.50;61.99
50394;BME280;36308;46.312;25.288;2022-07-05T01:19:12;96148.56;;;20.47;61.74
50394;BME280;36308;46.312;25.288;2022-07-05T01:21:40;96151.94;;;20.44;61.93
50394;BME280;36308;46.312;25.288;2022-07-05T01:24:11;96146.28;;;20.41;61.96
50394;BME280;36308;46.312;25.288;2022-07-05T01:26:38;96147.75;;;20.38;61.72
50394;BME280;36308;46.312;25.288;2022-07-05T01:29:04;96155.44;;;20.36;62.10
50394;BME280;36308;46.312;25.288;2022-07-05T01:31:29;96156.38;;;20.31;62.00
50394;BME280;36308;46.312;25.288;2022-07-05T01:33:55;96144.97;;;20.29;62.08
50394;BME280;36308;46.312;25.288;2022-07-05T01:36:21;96148.03;;;20.28;62.09
50394;BME280;36308;46.312;25.288;2022-07-05T01:38:47;96154.91;;;20.25;62.18
50394;BME280;36308;46.312;25.288;2022-07-05T01:41:12;96154.75;;;20.22;62.27
50394;BME280;36308;46.312;25.288;2022-07-05T01:43:38;96153.78;;;20.17;62.22
50394;BME280;36308;46.312;25.288;2022-07-05T01:46:04;96156.03;;;20.15;62.25
50394;BME280;36308;46.312;25.288;2022-07-05T01:48:32;96148.44;;;20.12;62.27
50394;BME280;36308;46.312;25.288;2022-07-05T01:51:07;96146.97;;;20.06;62.23
50394;BME280;36308;46.312;25.288;2022-07-05T01:53:33;96152.44;;;20.06;62.10
50394;BME280;36308;46.312;25.288;2022-07-05T01:56:02;96147.94;;;20.02;62.31
50394;BME280;36308;46.312;25.288;2022-07-05T01:58:29;96159.16;;;20.00;62.51
50394;BME280;36308;46.312;25.288;2022-07-05T02:00:56;96158.19;;;19.96;62.42
50394;BME280;36308;46.312;25.288;2022-07-05T02:03:22;96144.69;;;19.91;62.38
50394;BME280;36308;46.312;25.288;2022-07-05T02:05:49;96158.63;;;19.89;62.76
50394;BME280;36308;46.312;25.288;2022-07-05T02:08:16;96153.00;;;19.86;62.62
50394;BME280;36308;46.312;25.288;2022-07-05T02:10:42;96162.31;;;19.85;62.84
50394;BME280;36308;46.312;25.288;2022-07-05T02:13:09;96155.88;;;19.81;62.61
50394;BME280;36308;46.312;25.288;2022-07-05T02:15:36;96156.97;;;19.79;62.95
50394;BME280;36308;46.312;25.288;2022-07-05T02:18:03;96149.44;;;19.76;62.82
50394;BME280;36308;46.312;25.288;2022-07-05T02:20:31;96151.69;;;19.74;62.73
50394;BME280;36308;46.312;25.288;2022-07-05T02:22:57;96151.19;;;19.72;62.92
50394;BME280;36308;46.312;25.288;2022-07-05T02:25:23;96154.50;;;19.69;63.11
50394;BME280;36308;46.312;25.288;2022-07-05T02:27:50;96157.56;;;19.68;63.12
50394;BME280;36308;46.312;25.288;2022-07-05T02:30:16;96149.69;;;19.66;63.24
50394;BME280;36308;46.312;25.288;2022-07-05T02:32:42;96145.66;;;19.64;63.17
50394;BME280;36308;46.312;25.288;2022-07-05T02:35:08;96155.28;;;19.61;63.13
50394;BME280;36308;46.312;25.288;2022-07-05T02:37:34;96150.94;;;19.60;63.24
50394;BME280;36308;46.312;25.288;2022-07-05T02:40:00;96147.72;;;19.58;63.43
50394;BME280;36308;46.312;25.288;2022-07-05T02:42:26;96144.50;;;19.56;63.42
50394;BME280;36308;46.312;25.288;2022-07-05T02:44:51;96142.72;;;19.51;63.60
50394;BME280;36308;46.312;25.288;2022-07-05T02:47:16;96152.19;;;19.54;63.46
50394;BME280;36308;46.312;25.288;2022-07-05T02:49:42;96146.53;;;19.50;63.45
50394;BME280;36308;46.312;25.288;2022-07-05T02:52:07;96156.66;;;19.50;63.60
50394;BME280;36308;46.312;25.288;2022-07-05T02:54:33;96151.81;;;19.47;63.51
50394;BME280;36308;46.312;25.288;2022-07-05T02:57:01;96161.31;;;19.49;63.76
50394;BME280;36308;46.312;25.288;2022-07-05T02:59:27;96163.53;;;19.47;63.71
50394;BME280;36308;46.312;25.288;2022-07-05T03:02:11;96157.09;;;19.43;63.95
50394;BME280;36308;46.312;25.288;2022-07-05T03:04:36;96149.72;;;19.44;64.02
50394;BME280;36308;46.312;25.288;2022-07-05T03:07:02;96156.28;;;19.43;63.92
50394;BME280;36308;46.312;25.288;2022-07-05T03:09:27;96154.66;;;19.42;64.25
50394;BME280;36308;46.312;25.288;2022-07-05T03:11:52;96152.25;;;19.40;64.09
50394;BME280;36308;46.312;25.288;2022-07-05T03:14:18;96149.84;;;19.38;64.25
50394;BME280;36308;46.312;25.288;2022-07-05T03:16:43;96148.22;;;19.37;64.15
50394;BME280;36308;46.312;25.288;2022-07-05T03:19:10;96141.19;;;19.36;64.25
50394;BME280;36308;46.312;25.288;2022-07-05T03:21:36;96143.41;;;19.34;64.38
50394;BME280;36308;46.312;25.288;2022-07-05T03:24:01;96148.88;;;19.34;64.50
50394;BME280;36308;46.312;25.288;2022-07-05T03:26:27;96150.16;;;19.37;64.79
50394;BME280;36308;46.312;25.288;2022-07-05T03:28:52;96152.09;;;19.36;64.76
50394;BME280;36308;46.312;25.288;2022-07-05T03:31:17;96146.63;;;19.36;64.77
50394;BME280;36308;46.312;25.288;2022-07-05T03:33:54;96149.34;;;19.36;65.06
50394;BME280;36308;46.312;25.288;2022-07-05T03:36:21;96156.91;;;19.39;65.16
50394;BME280;36308;46.312;25.288;2022-07-05T03:38:47;96153.06;;;19.41;65.36
50394;BME280;36308;46.312;25.288;2022-07-05T03:41:13;96154.66;;;19.42;65.46
50394;BME280;36308;46.312;25.288;2022-07-05T03:43:38;96157.09;;;19.43;65.41
50394;BME280;36308;46.312;25.288;2022-07-05T03:46:03;96156.78;;;19.45;65.71
50394;BME280;36308;46.312;25.288;2022-07-05T03:48:29;96153.44;;;19.48;65.82
50394;BME280;36308;46.312;25.288;2022-07-05T03:50:54;96144.16;;;19.49;65.69
50394;BME280;36308;46.312;25.288;2022-07-05T03:53:20;96151.19;;;19.50;65.66
50394;BME280;36308;46.312;25.288;2022-07-05T03:55:45;96148.34;;;19.55;65.81
50394;BME280;36308;46.312;25.288;2022-07-05T03:58:11;96150.75;;;19.56;66.08
50394;BME280;36308;46.312;25.288;2022-07-05T04:00:36;96147.72;;;19.58;65.77
50394;BME280;36308;46.312;25.288;2022-07-05T04:03:02;96149.50;;;19.63;65.80
50394;BME280;36308;46.312;25.288;2022-07-05T04:05:27;96143.44;;;19.66;66.00
50394;BME280;36308;46.312;25.288;2022-07-05T04:07:54;96146.84;;;19.71;66.03
50394;BME280;36308;46.312;25.288;2022-07-05T04:10:20;96142.34;;;19.75;65.93
50394;BME280;36308;46.312;25.288;2022-07-05T04:12:46;96149.94;;;19.78;65.98
50394;BME280;36308;46.312;25.288;2022-07-05T04:15:13;96144.31;;;19.84;66.00
50394;BME280;36308;46.312;25.288;2022-07-05T04:17:55;96150.28;;;19.86;66.16
50394;BME280;36308;46.312;25.288;2022-07-05T04:20:22;96152.38;;;19.89;65.96
50394;BME280;36308;46.312;25.288;2022-07-05T04:22:48;96160.41;;;19.94;65.97
50394;BME280;36308;46.312;25.288;2022-07-05T04:25:14;96144.53;;;19.96;65.86
50394;BME280;36308;46.312;25.288;2022-07-05T04:27:50;96151.31;;;19.98;65.94
50394;BME280;36308;46.312;25.288;2022-07-05T04:30:17;96144.91;;;20.03;65.82
50394;BME280;36308;46.312;25.288;2022-07-05T04:32:43;96146.97;;;20.06;65.95
50394;BME280;36308;46.312;25.288;2022-07-05T04:35:09;96150.38;;;20.12;65.89
50394;BME280;36308;46.312;25.288;2022-07-05T04:37:35;96149.44;;;20.16;65.82
50394;BME280;36308;46.312;25.288;2022-07-05T04:40:03;96152.03;;;20.22;65.85
50394;BME280;36308;46.312;25.288;2022-07-05T04:42:28;96150.28;;;20.26;65.64
50394;BME280;36308;46.312;25.288;2022-07-05T04:44:54;96144.47;;;20.27;65.58
50394;BME280;36308;46.312;25.288;2022-07-05T04:47:19;96158.97;;;20.36;65.88
50394;BME280;36308;46.312;25.288;2022-07-05T04:49:45;96149.66;;;20.37;65.70
50394;BME280;36308;46.312;25.288;2022-07-05T04:52:10;96154.66;;;20.44;65.58
50394;BME280;36308;46.312;25.288;2022-07-05T04:54:36;96159.78;;;20.46;65.39
50394;BME280;36308;46.312;25.288;2022-07-05T04:57:02;96152.25;;;20.51;65.41
50394;BME280;36308;46.312;25.288;2022-07-05T04:59:27;96166.25;;;20.58;65.02
50394;BME280;36308;46.312;25.288;2022-07-05T05:01:53;96165.00;;;20.65;65.14
50394;BME280;36308;46.312;25.288;2022-07-05T05:04:29;96175.78;;;20.70;64.61
50394;BME280;36308;46.312;25.288;2022-07-05T05:06:54;96169.84;;;20.76;64.99
50394;BME280;36308;46.312;25.288;2022-07-05T05:09:19;96162.28;;;20.82;65.13
50394;BME280;36308;46.312;25.288;2022-07-05T05:11:46;96171.47;;;20.86;65.04
50394;BME280;36308;46.312;25.288;2022-07-05T05:14:11;96172.13;;;20.92;64.53
50394;BME280;36308;46.312;25.288;2022-07-05T05:16:37;96171.63;;;20.98;64.53
50394;BME280;36308;46.312;25.288;2022-07-05T05:19:02;96175.81;;;21.05;64.45
50394;BME280;36308;46.312;25.288;2022-07-05T05:21:28;96176.91;;;21.12;64.38
50394;BME280;36308;46.312;25.288;2022-07-05T05:23:53;96165.53;;;21.19;64.41
50394;BME280;36308;46.312;25.288;2022-07-05T05:26:18;96162.59;;;21.24;64.39
50394;BME280;36308;46.312;25.288;2022-07-05T05:28:44;96173.53;;;21.33;63.97
50394;BME280;36308;46.312;25.288;2022-07-05T05:31:09;96167.13;;;21.37;64.10
50394;BME280;36308;46.312;25.288;2022-07-05T05:33:35;96163.56;;;21.46;63.52
50394;BME280;36308;46.312;25.288;2022-07-05T05:36:01;96169.34;;;21.53;63.44
50394;BME280;36308;46.312;25.288;2022-07-05T05:38:27;96171.59;;;21.59;63.17
50394;BME280;36308;46.312;25.288;2022-07-05T05:40:52;96166.09;;;21.68;62.99
50394;BME280;36308;46.312;25.288;2022-07-05T05:43:18;96167.53;;;21.74;62.68
50394;BME280;36308;46.312;25.288;2022-07-05T05:45:43;96174.44;;;21.80;62.60
50394;BME280;36308;46.312;25.288;2022-07-05T05:48:08;96157.84;;;21.86;62.80
50394;BME280;36308;46.312;25.288;2022-07-05T05:50:35;96173.56;;;21.97;62.88
50394;BME280;36308;46.312;25.288;2022-07-05T05:53:02;96168.72;;;22.03;62.38
50394;BME280;36308;46.312;25.288;2022-07-05T05:55:29;96168.69;;;22.12;62.17
50394;BME280;36308;46.312;25.288;2022-07-05T05:57:55;96165.94;;;22.20;62.19
50394;BME280;36308;46.312;25.288;2022-07-05T06:00:22;96164.66;;;22.27;62.10
50394;BME280;36308;46.312;25.288;2022-07-05T06:02:49;96163.13;;;22.38;61.53
50394;BME280;36308;46.312;25.288;2022-07-05T06:05:16;96161.13;;;22.47;61.63
50394;BME280;36308;46.312;25.288;2022-07-05T06:07:53;96156.41;;;22.56;61.52
50394;BME280;36308;46.312;25.288;2022-07-05T06:10:21;96152.97;;;22.68;61.50
50394;BME280;36308;46.312;25.288;2022-07-05T06:12:47;96164.31;;;22.79;61.31
50394;BME280;36308;46.312;25.288;2022-07-05T06:15:13;96155.56;;;22.86;61.18
50394;BME280;36308;46.312;25.288;2022-07-05T06:17:39;96153.38;;;23.00;60.92
50394;BME280;36308;46.312;25.288;2022-07-05T06:20:12;96154.13;;;23.09;60.85
50394;BME280;36308;46.312;25.288;2022-07-05T06:22:38;96147.44;;;23.19;60.20
50394;BME280;36308;46.312;25.288;2022-07-05T06:25:04;96151.34;;;23.30;60.46
50394;BME280;36308;46.312;25.288;2022-07-05T06:27:30;96151.06;;;23.44;59.80
50394;BME280;36308;46.312;25.288;2022-07-05T06:29:56;96145.94;;;23.55;59.40
50394;BME280;36308;46.312;25.288;2022-07-05T06:32:23;96152.63;;;23.66;59.17
50394;BME280;36308;46.312;25.288;2022-07-05T06:34:48;96136.84;;;23.75;58.93
50394;BME280;36308;46.312;25.288;2022-07-05T06:37:14;96149.03;;;23.87;58.96
50394;BME280;36308;46.312;25.288;2022-07-05T06:39:39;96146.19;;;23.95;58.56
50394;BME280;36308;46.312;25.288;2022-07-05T06:42:05;96148.59;;;24.09;58.07
50394;BME280;36308;46.312;25.288;2022-07-05T06:44:30;96156.03;;;24.21;57.73
50394;BME280;36308;46.312;25.288;2022-07-05T06:46:55;96152.84;;;24.31;57.35
50394;BME280;36308;46.312;25.288;2022-07-05T06:49:21;96146.88;;;24.41;57.07
50394;BME280;36308;46.312;25.288;2022-07-05T06:51:46;96147.69;;;24.54;56.44
50394;BME280;36308;46.312;25.288;2022-07-05T06:54:12;96144.94;;;24.67;56.43
50394;BME280;36308;46.312;25.288;2022-07-05T06:56:37;96153.97;;;24.79;56.23
50394;BME280;36308;46.312;25.288;2022-07-05T06:59:03;96141.00;;;24.92;56.13
50394;BME280;36308;46.312;25.288;2022-07-05T07:01:28;96137.41;;;25.04;55.63
50394;BME280;36308;46.312;25.288;2022-07-05T07:03:53;96137.03;;;25.18;54.36
50394;BME280;36308;46.312;25.288;2022-07-05T07:06:19;96140.22;;;25.32;54.29
50394;BME280;36308;46.312;25.288;2022-07-05T07:08:45;96136.22;;;25.46;53.54
50394;BME280;36308;46.312;25.288;2022-07-05T07:11:29;96135.47;;;25.61;53.67
50394;BME280;36308;46.312;25.288;2022-07-05T07:13:55;96141.38;;;25.75;53.01
50394;BME280;36308;46.312;25.288;2022-07-05T07:16:20;96142.88;;;25.89;53.19
50394;BME280;36308;46.312;25.288;2022-07-05T07:18:45;96134.56;;;26.01;52.86
50394;BME280;36308;46.312;25.288;2022-07-05T07:21:11;96135.63;;;26.12;52.81
50394;BME280;36308;46.312;25.288;2022-07-05T07:23:36;96131.19;;;26.24;52.54
50394;BME280;36308;46.312;25.288;2022-07-05T07:26:02;96126.81;;;26.38;51.95
50394;BME280;36308;46.312;25.288;2022-07-05T07:28:51;96129.09;;;26.52;51.77
50394;BME280;36308;46.312;25.288;2022-07-05T07:31:17;96137.00;;;26.70;51.09
50394;BME280;36308;46.312;25.288;2022-07-05T07:33:42;96133.34;;;26.81;50.73
50394;BME280;36308;46.312;25.288;2022-07-05T07:36:08;96130.06;;;26.95;49.98
50394;BME280;36308;46.312;25.288;2022-07-05T07:38:33;96127.56;;;27.06;49.85
50394;BME280;36308;46.312;25.288;2022-07-05T07:40:58;96130.13;;;27.18;48.95
50394;BME280;36308;46.312;25.288;2022-07-05T07:43:26;96118.63;;;27.32;48.18
50394;BME280;36308;46.312;25.288;2022-07-05T07:45:52;96128.38;;;27.46;47.75
50394;BME280;36308;46.312;25.288;2022-07-05T07:48:17;96129.78;;;27.59;47.33
50394;BME280;36308;46.312;25.288;2022-07-05T07:50:44;96131.97;;;27.69;47.02
50394;BME280;36308;46.312;25.288;2022-07-05T07:53:09;96127.41;;;27.80;45.64
50394;BME280;36308;46.312;25.288;2022-07-05T07:55:35;96130.88;;;27.97;45.04
50394;BME280;36308;46.312;25.288;2022-07-05T07:58:00;96131.13;;;28.11;45.18
50394;BME280;36308;46.312;25.288;2022-07-05T08:00:26;96132.16;;;28.26;44.93
50394;BME280;36308;46.312;25.288;2022-07-05T08:02:51;96118.97;;;28.39;44.73
50394;BME280;36308;46.312;25.288;2022-07-05T08:05:17;96121.22;;;28.56;43.96
50394;BME280;36308;46.312;25.288;2022-07-05T08:07:42;96117.47;;;28.72;43.05
50394;BME280;36308;46.312;25.288;2022-07-05T08:10:08;96123.59;;;28.85;42.88
50394;BME280;36308;46.312;25.288;2022-07-05T08:12:34;96113.94;;;29.01;41.90
50394;BME280;36308;46.312;25.288;2022-07-05T08:14:59;96117.34;;;29.18;41.31
50394;BME280;36308;46.312;25.288;2022-07-05T08:17:25;96107.59;;;29.31;41.23
50394;BME280;36308;46.312;25.288;2022-07-05T08:19:50;96113.25;;;29.42;41.33
50394;BME280;36308;46.312;25.288;2022-07-05T08:22:34;96109.84;;;29.56;39.65
50394;BME280;36308;46.312;25.288;2022-07-05T08:25:00;96118.69;;;29.69;39.62
50394;BME280;36308;46.312;25.288;2022-07-05T08:27:25;96116.03;;;29.79;39.76
50394;BME280;36308;46.312;25.288;2022-07-05T08:30:18;96113.78;;;29.92;39.58
50394;BME280;36308;46.312;25.288;2022-07-05T08:32:44;96116.25;;;30.05;39.49
50394;BME280;36308;46.312;25.288;2022-07-05T08:35:09;96121.94;;;30.19;39.34
50394;BME280;36308;46.312;25.288;2022-07-05T08:37:35;96112.56;;;30.31;37.89
50394;BME280;36308;46.312;25.288;2022-07-05T08:40:00;96114.63;;;30.41;38.04
50394;BME280;36308;46.312;25.288;2022-07-05T08:42:26;96117.88;;;30.54;37.26
50394;BME280;36308;46.312;25.288;2022-07-05T08:44:55;96106.84;;;30.61;36.40
50394;BME280;36308;46.312;25.288;2022-07-05T08:47:21;96106.09;;;30.75;36.96
50394;BME280;36308;46.312;25.288;2022-07-05T08:49:47;96111.78;;;30.89;36.19
50394;BME280;36308;46.312;25.288;2022-07-05T08:52:15;96105.47;;;30.99;35.18
50394;BME280;36308;46.312;25.288;2022-07-05T08:54:40;96099.94;;;31.07;34.72
50394;BME280;36308;46.312;25.288;2022-07-05T08:57:06;96104.78;;;31.24;34.76
50394;BME280;36308;46.312;25.288;2022-07-05T08:59:31;96104.44;;;31.36;34.72
50394;BME280;36308;46.312;25.288;2022-07-05T09:01:57;96109.28;;;31.50;33.42
50394;BME280;36308;46.312;25.288;2022-07-05T09:04:30;96094.59;;;31.60;34.21
50394;BME280;36308;46.312;25.288;2022-07-05T09:06:59;96106.16;;;31.80;32.92
50394;BME280;36308;46.312;25.288;2022-07-05T09:09:27;96097.06;;;31.94;32.82
50394;BME280;36308;46.312;25.288;2022-07-05T09:11:53;96092.69;;;32.04;31.65
50394;BME280;36308;46.312;25.288;2022-07-05T09:14:24;96086.34;;;32.21;31.07
50394;BME280;36308;46.312;25.288;2022-07-05T09:16:52;96090.31;;;32.35;31.25
50394;BME280;36308;46.312;25.288;2022-07-05T09:19:17;96097.47;;;32.50;30.97
50394;BME280;36308;46.312;25.288;2022-07-05T09:21:43;96086.34;;;32.65;31.46
50394;BME280;36308;46.312;25.288;2022-07-05T09:24:09;96086.31;;;32.79;31.64
50394;BME280;36308;46.312;25.288;2022-07-05T09:26:46;96079.88;;;33.00;30.54
50394;BME280;36308;46.312;25.288;2022-07-05T09:29:18;96086.59;;;33.17;30.63
50394;BME280;36308;46.312;25.288;2022-07-05T09:32:22;96084.13;;;33.33;31.33
50394;BME280;36308;46.312;25.288;2022-07-05T09:34:48;96085.22;;;33.54;31.93
50394;BME280;36308;46.312;25.288;2022-07-05T09:37:13;96081.16;;;33.69;31.31
50394;BME280;36308;46.312;25.288;2022-07-05T09:39:39;96075.50;;;33.84;31.11
50394;BME280;36308;46.312;25.288;2022-07-05T09:42:21;96080.13;;;34.01;30.70
50394;BME280;36308;46.312;25.288;2022-07-05T09:44:50;96072.06;;;34.17;30.76
50394;BME280;36308;46.312;25.288;2022-07-05T09:47:18;96077.13;;;34.33;31.42
50394;BME280;36308;46.312;25.288;2022-07-05T09:49:46;96076.50;;;34.53;29.75
50394;BME280;36308;46.312;25.288;2022-07-05T09:55:15;96073.81;;;34.87;29.14
50394;BME280;36308;46.312;25.288;2022-07-05T09:57:43;96064.41;;;35.05;29.37
50394;BME280;36308;46.312;25.288;2022-07-05T10:00:17;96062.22;;;35.23;29.06
50394;BME280;36308;46.312;25.288;2022-07-05T10:02:47;96068.00;;;35.39;27.51
50394;BME280;36308;46.312;25.288;2022-07-05T10:05:21;96069.38;;;35.55;27.07
50394;BME280;36308;46.312;25.288;2022-07-05T10:07:52;96062.41;;;35.70;27.77
50394;BME280;36308;46.312;25.288;2022-07-05T10:10:23;96070.50;;;35.88;27.13
50394;BME280;36308;46.312;25.288;2022-07-05T10:12:52;96063.44;;;36.07;26.35
50394;BME280;36308;46.312;25.288;2022-07-05T10:15:20;96043.75;;;36.14;26.46
50394;BME280;36308;46.312;25.288;2022-07-05T10:18:11;96058.06;;;36.40;26.68
50394;BME280;36308;46.312;25.288;2022-07-05T10:20:42;96061.78;;;36.57;25.28
50394;BME280;36308;46.312;25.288;2022-07-05T10:23:16;96057.59;;;36.69;24.62
50394;BME280;36308;46.312;25.288;2022-07-05T10:25:45;96051.00;;;36.79;24.34
50394;BME280;36308;46.312;25.288;2022-07-05T10:28:14;96044.38;;;36.89;25.13
50394;BME280;36308;46.312;25.288;2022-07-05T10:30:39;96052.16;;;37.01;24.33
50394;BME280;36308;46.312;25.288;2022-07-05T10:33:29;96045.06;;;37.17;24.16
50394;BME280;36308;46.312;25.288;2022-07-05T10:35:55;96034.75;;;37.30;24.34
50394;BME280;36308;46.312;25.288;2022-07-05T10:38:21;96030.75;;;37.48;24.28
50394;BME280;36308;46.312;25.288;2022-07-05T10:40:51;96029.59;;;37.65;23.92
50394;BME280;36308;46.312;25.288;2022-07-05T10:43:21;96031.19;;;37.83;23.57
50394;BME280;36308;46.312;25.288;2022-07-05T10:45:48;96033.13;;;38.02;23.78
50394;BME280;36308;46.312;25.288;2022-07-05T10:48:28;96023.41;;;38.23;24.01
50394;BME280;36308;46.312;25.288;2022-07-05T10:51:01;96036.34;;;38.50;23.36
50394;BME280;36308;46.312;25.288;2022-07-05T10:58:38;96007.72;;;38.84;22.94
50394;BME280;36308;46.312;25.288;2022-07-05T11:16:47;96010.53;;;39.26;23.25
50394;BME280;36308;46.312;25.288;2022-07-05T11:19:17;96011.34;;;39.39;22.31
50394;BME280;36308;46.312;25.288;2022-07-05T11:22:04;96015.66;;;39.44;21.86
50394;BME280;36308;46.312;25.288;2022-07-05T11:24:31;96003.72;;;39.53;20.58
50394;BME280;36308;46.312;25.288;2022-07-05T11:26:59;96000.03;;;39.56;20.69
50394;BME280;36308;46.312;25.288;2022-07-05T11:32:19;96010.59;;;39.77;19.64
50394;BME280;36308;46.312;25.288;2022-07-05T11:34:46;96007.19;;;39.83;18.96
50394;BME280;36308;46.312;25.288;2022-07-05T11:37:27;96005.41;;;39.89;19.50
50394;BME280;36308;46.312;25.288;2022-07-05T11:42:45;96005.59;;;40.07;18.12
50394;BME280;36308;46.312;25.288;2022-07-05T11:45:11;95997.50;;;40.09;17.24
50394;BME280;36308;46.312;25.288;2022-07-05T11:47:37;95988.59;;;40.11;17.50
50394;BME280;36308;46.312;25.288;2022-07-05T11:50:02;95985.09;;;40.19;17.18
50394;BME280;36308;46.312;25.288;2022-07-05T11:52:29;95979.44;;;40.19;16.15
50394;BME280;36308;46.312;25.288;2022-07-05T11:54:56;95978.00;;;40.15;16.13
50394;BME280;36308;46.312;25.288;2022-07-05T11:57:22;95971.25;;;40.12;16.35
50394;BME280;36308;46.312;25.288;2022-07-05T11:59:48;95964.53;;;40.10;16.24
50394;BME280;36308;46.312;25.288;2022-07-05T12:02:14;95977.78;;;40.09;16.23
50394;BME280;36308;46.312;25.288;2022-07-05T12:04:40;95966.53;;;40.09;16.11
50394;BME280;36308;46.312;25.288;2022-07-05T12:07:05;95964.53;;;40.10;16.30
50394;BME280;36308;46.312;25.288;2022-07-05T12:09:32;95963.47;;;40.16;16.54
50394;BME280;36308;46.312;25.288;2022-07-05T12:12:23;95958.25;;;40.28;16.20
50394;BME280;36308;46.312;25.288;2022-07-05T12:15:40;95961.03;;;40.40;16.37
50394;BME280;36308;46.312;25.288;2022-07-05T12:18:01;95956.88;;;40.45;16.41
50394;BME280;36308;46.312;25.288;2022-07-05T12:20:34;95950.91;;;40.43;16.43
50394;BME280;36308;46.312;25.288;2022-07-05T12:23:00;95944.03;;;40.44;16.73
50394;BME280;36308;46.312;25.288;2022-07-05T12:25:28;95939.69;;;40.52;16.78
50394;BME280;36308;46.312;25.288;2022-07-05T12:27:55;95948.69;;;40.60;17.08
50394;BME280;36308;46.312;25.288;2022-07-05T12:30:41;95947.75;;;40.63;16.91
50394;BME280;36308;46.312;25.288;2022-07-05T12:33:08;95930.34;;;40.55;17.31
50394;BME280;36308;46.312;25.288;2022-07-05T12:38:11;95949.78;;;40.63;17.81
50394;BME280;36308;46.312;25.288;2022-07-05T12:40:42;95941.00;;;40.60;18.23
50394;BME280;36308;46.312;25.288;2022-07-05T12:43:10;95934.47;;;40.64;17.33
50394;BME280;36308;46.312;25.288;2022-07-05T12:45:40;95924.75;;;40.65;15.97
50394;BME280;36308;46.312;25.288;2022-07-05T12:48:07;95930.13;;;40.72;16.09
50394;BME280;36308;46.312;25.288;2022-07-05T12:50:49;95925.81;;;40.80;16.40
50394;BME280;36308;46.312;25.288;2022-07-05T12:53:15;95928.38;;;40.87;17.22
50394;BME280;36308;46.312;25.288;2022-07-05T12:56:02;95924.38;;;40.97;17.55
50394;BME280;36308;46.312;25.288;2022-07-05T12:58:54;95915.28;;;41.03;17.95
50394;BME280;36308;46.312;25.288;2022-07-05T13:01:28;95928.47;;;41.06;17.77
50394;BME280;36308;46.312;25.288;2022-07-05T13:06:51;95909.66;;;41.03;17.07
50394;BME280;36308;46.312;25.288;2022-07-05T13:09:34;95919.38;;;41.02;17.53
50394;BME280;36308;46.312;25.288;2022-07-05T13:12:20;95921.22;;;40.95;17.70
50394;BME280;36308;46.312;25.288;2022-07-05T13:14:51;95921.16;;;40.86;17.59
50394;BME280;36308;46.312;25.288;2022-07-05T13:17:19;95917.28;;;40.71;17.80
50394;BME280;36308;46.312;25.288;2022-07-05T13:19:47;95909.69;;;40.58;18.38
50394;BME280;36308;46.312;25.288;2022-07-05T13:22:12;95909.97;;;40.51;18.79
50394;BME280;36308;46.312;25.288;2022-07-05T13:24:39;95904.59;;;40.44;18.74
50394;BME280;36308;46.312;25.288;2022-07-05T13:27:05;95907.06;;;40.42;18.42
50394;BME280;36308;46.312;25.288;2022-07-05T13:29:31;95902.38;;;40.39;18.32
50394;BME280;36308;46.312;25.288;2022-07-05T13:31:57;95896.97;;;40.32;18.59